sensor_id;sensor_type;location;lat;lon;timestamp;P1;durP1;ratioP1;P2;durP2;ratioP2
76208;SDS011;64990;51.698;-0.292;2023-07-13T00:01:39;5.25;;;2.60;;
76208;SDS011;64990;51.698;-0.292;2023-07-13T00:04:05;8.15;;;2.70;;
76208;SDS011;64990;51.698;-0.292;2023-07-13T00:06:32;8.05;;;2.05;;
76208;SDS011;64990;51.698;-0.292;2023-07-13T00:08:58;5.65;;;2.30;;
76208;SDS011;64990;51.698;-0.292;2023-07-13T00:11:24;4.78;;;1.17;;
76208;SDS011;64990;51.698;-0.292;2023-07-13T00:13:50;11.80;;;2.35;;
76208;SDS011;64990;51.698;-0.292;2023-07-13T00:16:16;22.33;;;3.10;;
76208;SDS011;64990;51.698;-0.292;2023-07-13T00:18:44;2.97;;;2.03;;
76208;SDS011;64990;51.698;-0.292;2023-07-13T00:21:10;5.53;;;2.13;;
76208;SDS011;64990;51.698;-0.292;2023-07-13T00:23:37;8.40;;;2.20;;
76208;SDS011;64990;51.698;-0.292;2023-07-13T00:26:04;6.65;;;2.28;;
76208;SDS011;64990;51.698;-0.292;2023-07-13T00:28:31;7.00;;;1.92;;
76208;SDS011;64990;51.698;-0.292;2023-07-13T00:30:57;6.28;;;2.33;;
76208;SDS011;64990;51.698;-0.292;2023-07-13T00:33:23;6.78;;;2.42;;
76208;SDS011;64990;51.698;-0.292;2023-07-13T00:35:49;5.75;;;2.53;;
76208;SDS011;64990;51.698;-0.292;2023-07-13T00:38:15;8.00;;;2.25;;
76208;SDS011;64990;51.698;-0.292;2023-07-13T00:40:42;8.60;;;2.25;;
76208;SDS011;64990;51.698;-0.292;2023-07-13T00:43:15;5.63;;;2.45;;
76208;SDS011;64990;51.698;-0.292;2023-07-13T00:48:08;10.57;;;2.75;;
76208;SDS011;64990;51.698;-0.292;2023-07-13T00:50:35;6.88;;;1.85;;
76208;SDS011;64990;51.698;-0.292;2023-07-13T00:53:01;6.55;;;2.25;;
76208;SDS011;64990;51.698;-0.292;2023-07-13T00:55:28;6.70;;;2.17;;
76208;SDS011;64990;51.698;-0.292;2023-07-13T00:57:54;7.32;;;2.33;;
76208;SDS011;64990;51.698;-0.292;2023-07-13T01:00:21;11.65;;;3.25;;
76208;SDS011;64990;51.698;-0.292;2023-07-13T01:02:48;7.80;;;2.53;;
76208;SDS011;64990;51.698;-0.292;2023-07-13T01:05:19;7.18;;;1.75;;
76208;SDS011;64990;51.698;-0.292;2023-07-13T01:07:45;5.93;;;2.50;;
76208;SDS011;64990;51.698;-0.292;2023-07-13T01:10:13;8.02;;;2.80;;
76208;SDS011;64990;51.698;-0.292;2023-07-13T01:12:40;7.97;;;2.03;;
76208;SDS011;64990;51.698;-0.292;2023-07-13T01:15:32;6.47;;;2.85;;
76208;SDS011;64990;51.698;-0.292;2023-07-13T01:17:52;9.77;;;2.88;;
76208;SDS011;64990;51.698;-0.292;2023-07-13T01:20:18;3.75;;;2.80;;
76208;SDS011;64990;51.698;-0.292;2023-07-13T01:22:44;17.63;;;3.65;;
76208;SDS011;64990;51.698;-0.292;2023-07-13T01:25:10;5.45;;;1.90;;
76208;SDS011;64990;51.698;-0.292;2023-07-13T01:27:36;10.45;;;2.97;;
76208;SDS011;64990;51.698;-0.292;2023-07-13T01:30:02;4.57;;;1.92;;
76208;SDS011;64990;51.698;-0.292;2023-07-13T01:32:29;12.10;;;2.05;;
76208;SDS011;64990;51.698;-0.292;2023-07-13T01:34:56;4.88;;;2.45;;
76208;SDS011;64990;51.698;-0.292;2023-07-13T01:37:23;8.07;;;2.47;;
76208;SDS011;64990;51.698;-0.292;2023-07-13T01:39:49;12.38;;;2.47;;
76208;SDS011;64990;51.698;-0.292;2023-07-13T01:42:15;13.93;;;2.42;;
76208;SDS011;64990;51.698;-0.292;2023-07-13T01:44:41;3.05;;;1.48;;
76208;SDS011;64990;51.698;-0.292;2023-07-13T01:47:08;6.47;;;2.15;;
76208;SDS011;64990;51.698;-0.292;2023-07-13T01:49:34;6.60;;;2.58;;
76208;SDS011;64990;51.698;-0.292;2023-07-13T01:52:00;6.82;;;2.30;;
76208;SDS011;64990;51.698;-0.292;2023-07-13T01:54:26;9.57;;;2.75;;
76208;SDS011;64990;51.698;-0.292;2023-07-13T01:56:52;14.00;;;2.85;;
76208;SDS011;64990;51.698;-0.292;2023-07-13T01:59:18;6.10;;;2.22;;
76208;SDS011;64990;51.698;-0.292;2023-07-13T02:01:44;15.63;;;3.05;;
76208;SDS011;64990;51.698;-0.292;2023-07-13T02:04:10;8.05;;;2.45;;
76208;SDS011;64990;51.698;-0.292;2023-07-13T02:06:36;11.63;;;2.63;;
76208;SDS011;64990;51.698;-0.292;2023-07-13T02:09:02;9.48;;;2.33;;
76208;SDS011;64990;51.698;-0.292;2023-07-13T02:11:28;7.88;;;2.47;;
76208;SDS011;64990;51.698;-0.292;2023-07-13T02:13:58;8.30;;;2.25;;
76208;SDS011;64990;51.698;-0.292;2023-07-13T02:16:24;8.70;;;3.47;;
76208;SDS011;64990;51.698;-0.292;2023-07-13T02:18:50;6.63;;;1.92;;
76208;SDS011;64990;51.698;-0.292;2023-07-13T02:21:17;11.60;;;2.60;;
76208;SDS011;64990;51.698;-0.292;2023-07-13T02:23:43;13.00;;;3.92;;
76208;SDS011;64990;51.698;-0.292;2023-07-13T02:26:09;11.45;;;3.30;;
76208;SDS011;64990;51.698;-0.292;2023-07-13T02:28:35;11.57;;;3.85;;
76208;SDS011;64990;51.698;-0.292;2023-07-13T02:31:08;15.98;;;3.08;;
76208;SDS011;64990;51.698;-0.292;2023-07-13T02:33:34;10.75;;;2.88;;
76208;SDS011;64990;51.698;-0.292;2023-07-13T02:36:00;12.35;;;2.67;;
76208;SDS011;64990;51.698;-0.292;2023-07-13T02:38:26;18.90;;;4.60;;
76208;SDS011;64990;51.698;-0.292;2023-07-13T02:40:52;7.13;;;2.88;;
76208;SDS011;64990;51.698;-0.292;2023-07-13T02:43:18;14.98;;;2.65;;
76208;SDS011;64990;51.698;-0.292;2023-07-13T02:45:45;18.30;;;3.58;;
76208;SDS011;64990;51.698;-0.292;2023-07-13T02:48:13;5.07;;;2.20;;
76208;SDS011;64990;51.698;-0.292;2023-07-13T02:50:39;11.40;;;2.95;;
76208;SDS011;64990;51.698;-0.292;2023-07-13T02:53:05;8.98;;;3.53;;
76208;SDS011;64990;51.698;-0.292;2023-07-13T02:55:31;11.75;;;2.22;;
76208;SDS011;64990;51.698;-0.292;2023-07-13T02:57:57;7.30;;;2.67;;
76208;SDS011;64990;51.698;-0.292;2023-07-13T03:00:23;13.95;;;2.83;;
76208;SDS011;64990;51.698;-0.292;2023-07-13T03:02:49;13.27;;;3.13;;
76208;SDS011;64990;51.698;-0.292;2023-07-13T03:05:15;9.48;;;2.05;;
76208;SDS011;64990;51.698;-0.292;2023-07-13T03:07:41;14.60;;;2.95;;
76208;SDS011;64990;51.698;-0.292;2023-07-13T03:10:09;9.85;;;3.47;;
76208;SDS011;64990;51.698;-0.292;2023-07-13T03:12:35;8.35;;;3.25;;
76208;SDS011;64990;51.698;-0.292;2023-07-13T03:15:01;4.82;;;2.65;;
76208;SDS011;64990;51.698;-0.292;2023-07-13T03:17:27;3.95;;;2.90;;
76208;SDS011;64990;51.698;-0.292;2023-07-13T03:19:53;22.45;;;6.10;;
76208;SDS011;64990;51.698;-0.292;2023-07-13T03:22:19;19.60;;;4.55;;
76208;SDS011;64990;51.698;-0.292;2023-07-13T03:24:45;13.80;;;3.92;;
76208;SDS011;64990;51.698;-0.292;2023-07-13T03:27:11;9.43;;;2.92;;
76208;SDS011;64990;51.698;-0.292;2023-07-13T03:29:37;11.75;;;3.55;;
76208;SDS011;64990;51.698;-0.292;2023-07-13T03:32:04;14.82;;;3.35;;
76208;SDS011;64990;51.698;-0.292;2023-07-13T03:34:30;3.53;;;2.15;;
76208;SDS011;64990;51.698;-0.292;2023-07-13T03:36:56;17.30;;;5.35;;
76208;SDS011;64990;51.698;-0.292;2023-07-13T03:39:22;6.72;;;2.67;;
76208;SDS011;64990;51.698;-0.292;2023-07-13T03:41:48;7.25;;;3.40;;
76208;SDS011;64990;51.698;-0.292;2023-07-13T03:44:18;5.00;;;3.70;;
76208;SDS011;64990;51.698;-0.292;2023-07-13T03:46:44;11.13;;;2.55;;
76208;SDS011;64990;51.698;-0.292;2023-07-13T03:49:10;10.27;;;3.25;;
76208;SDS011;64990;51.698;-0.292;2023-07-13T03:51:36;13.18;;;3.67;;
76208;SDS011;64990;51.698;-0.292;2023-07-13T03:54:02;8.80;;;3.60;;
76208;SDS011;64990;51.698;-0.292;2023-07-13T03:56:28;13.20;;;3.35;;
76208;SDS011;64990;51.698;-0.292;2023-07-13T03:58:55;16.27;;;4.05;;
76208;SDS011;64990;51.698;-0.292;2023-07-13T04:01:22;11.68;;;3.35;;
76208;SDS011;64990;51.698;-0.292;2023-07-13T04:03:50;19.75;;;5.22;;
76208;SDS011;64990;51.698;-0.292;2023-07-13T04:06:17;10.95;;;3.08;;
76208;SDS011;64990;51.698;-0.292;2023-07-13T04:08:52;9.05;;;2.38;;
76208;SDS011;64990;51.698;-0.292;2023-07-13T04:11:19;11.80;;;3.25;;
76208;SDS011;64990;51.698;-0.292;2023-07-13T04:13:45;11.20;;;3.47;;
76208;SDS011;64990;51.698;-0.292;2023-07-13T04:16:12;14.65;;;3.70;;
76208;SDS011;64990;51.698;-0.292;2023-07-13T04:18:38;12.32;;;2.80;;
76208;SDS011;64990;51.698;-0.292;2023-07-13T04:21:04;8.98;;;3.03;;
76208;SDS011;64990;51.698;-0.292;2023-07-13T04:23:30;5.38;;;2.83;;
76208;SDS011;64990;51.698;-0.292;2023-07-13T04:25:56;16.58;;;2.72;;
76208;SDS011;64990;51.698;-0.292;2023-07-13T04:28:23;7.22;;;2.95;;
76208;SDS011;64990;51.698;-0.292;2023-07-13T04:30:49;16.20;;;3.75;;
76208;SDS011;64990;51.698;-0.292;2023-07-13T04:33:15;10.55;;;4.07;;
76208;SDS011;64990;51.698;-0.292;2023-07-13T04:35:42;20.15;;;4.28;;
76208;SDS011;64990;51.698;-0.292;2023-07-13T04:38:08;9.60;;;3.15;;
76208;SDS011;64990;51.698;-0.292;2023-07-13T04:40:36;8.48;;;3.35;;
76208;SDS011;64990;51.698;-0.292;2023-07-13T04:43:02;5.80;;;2.65;;
76208;SDS011;64990;51.698;-0.292;2023-07-13T04:45:28;9.50;;;3.08;;
76208;SDS011;64990;51.698;-0.292;2023-07-13T04:47:56;11.27;;;3.38;;
76208;SDS011;64990;51.698;-0.292;2023-07-13T04:50:22;13.35;;;3.08;;
76208;SDS011;64990;51.698;-0.292;2023-07-13T04:52:51;11.48;;;3.58;;
76208;SDS011;64990;51.698;-0.292;2023-07-13T04:55:18;5.20;;;2.88;;
76208;SDS011;64990;51.698;-0.292;2023-07-13T04:57:45;10.02;;;3.55;;
76208;SDS011;64990;51.698;-0.292;2023-07-13T05:00:12;6.35;;;2.53;;
76208;SDS011;64990;51.698;-0.292;2023-07-13T05:02:38;9.85;;;3.35;;
76208;SDS011;64990;51.698;-0.292;2023-07-13T05:05:05;6.18;;;3.22;;
76208;SDS011;64990;51.698;-0.292;2023-07-13T05:07:31;6.70;;;2.90;;
76208;SDS011;64990;51.698;-0.292;2023-07-13T05:09:58;10.45;;;2.83;;
76208;SDS011;64990;51.698;-0.292;2023-07-13T05:12:25;9.32;;;3.42;;
76208;SDS011;64990;51.698;-0.292;2023-07-13T05:14:51;7.53;;;4.13;;
76208;SDS011;64990;51.698;-0.292;2023-07-13T05:17:17;12.18;;;3.65;;
76208;SDS011;64990;51.698;-0.292;2023-07-13T05:19:43;9.25;;;2.35;;
76208;SDS011;64990;51.698;-0.292;2023-07-13T05:22:09;19.80;;;3.63;;
76208;SDS011;64990;51.698;-0.292;2023-07-13T05:24:35;7.78;;;3.00;;
76208;SDS011;64990;51.698;-0.292;2023-07-13T05:27:01;10.38;;;1.95;;
76208;SDS011;64990;51.698;-0.292;2023-07-13T05:29:26;16.65;;;5.10;;
76208;SDS011;64990;51.698;-0.292;2023-07-13T05:31:52;11.07;;;3.10;;
76208;SDS011;64990;51.698;-0.292;2023-07-13T05:34:19;9.15;;;2.65;;
76208;SDS011;64990;51.698;-0.292;2023-07-13T05:36:44;10.45;;;2.25;;
76208;SDS011;64990;51.698;-0.292;2023-07-13T05:39:11;14.00;;;2.15;;
76208;SDS011;64990;51.698;-0.292;2023-07-13T05:41:37;6.72;;;2.67;;
76208;SDS011;64990;51.698;-0.292;2023-07-13T05:44:03;9.50;;;3.20;;
76208;SDS011;64990;51.698;-0.292;2023-07-13T05:46:29;7.28;;;2.80;;
76208;SDS011;64990;51.698;-0.292;2023-07-13T05:48:56;8.95;;;3.13;;
76208;SDS011;64990;51.698;-0.292;2023-07-13T05:51:22;11.68;;;2.83;;
76208;SDS011;64990;51.698;-0.292;2023-07-13T05:53:48;10.20;;;2.58;;
76208;SDS011;64990;51.698;-0.292;2023-07-13T05:56:14;7.47;;;3.30;;
76208;SDS011;64990;51.698;-0.292;2023-07-13T05:58:40;8.63;;;3.42;;
76208;SDS011;64990;51.698;-0.292;2023-07-13T06:01:09;8.27;;;2.67;;
76208;SDS011;64990;51.698;-0.292;2023-07-13T06:03:35;9.50;;;3.17;;
76208;SDS011;64990;51.698;-0.292;2023-07-13T06:06:03;8.13;;;2.60;;
76208;SDS011;64990;51.698;-0.292;2023-07-13T06:08:30;12.63;;;3.42;;
76208;SDS011;64990;51.698;-0.292;2023-07-13T06:13:49;12.50;;;3.15;;
76208;SDS011;64990;51.698;-0.292;2023-07-13T06:16:15;7.22;;;3.35;;
76208;SDS011;64990;51.698;-0.292;2023-07-13T06:18:41;7.90;;;2.63;;
76208;SDS011;64990;51.698;-0.292;2023-07-13T06:23:34;9.70;;;3.10;;
76208;SDS011;64990;51.698;-0.292;2023-07-13T06:26:00;7.65;;;2.72;;
76208;SDS011;64990;51.698;-0.292;2023-07-13T06:28:26;7.72;;;2.30;;
76208;SDS011;64990;51.698;-0.292;2023-07-13T06:30:52;11.32;;;2.75;;
76208;SDS011;64990;51.698;-0.292;2023-07-13T06:33:18;13.05;;;3.08;;
76208;SDS011;64990;51.698;-0.292;2023-07-13T06:35:44;8.93;;;2.22;;
76208;SDS011;64990;51.698;-0.292;2023-07-13T06:38:10;3.58;;;1.98;;
76208;SDS011;64990;51.698;-0.292;2023-07-13T06:40:36;11.13;;;2.55;;
76208;SDS011;64990;51.698;-0.292;2023-07-13T06:43:02;4.85;;;2.70;;
76208;SDS011;64990;51.698;-0.292;2023-07-13T06:45:28;8.27;;;2.40;;
76208;SDS011;64990;51.698;-0.292;2023-07-13T06:47:54;10.75;;;2.30;;
76208;SDS011;64990;51.698;-0.292;2023-07-13T06:50:20;7.53;;;2.10;;
76208;SDS011;64990;51.698;-0.292;2023-07-13T06:52:46;13.60;;;2.78;;
76208;SDS011;64990;51.698;-0.292;2023-07-13T06:55:12;14.18;;;2.00;;
76208;SDS011;64990;51.698;-0.292;2023-07-13T06:57:38;8.85;;;3.13;;
76208;SDS011;64990;51.698;-0.292;2023-07-13T07:00:04;8.88;;;2.45;;
76208;SDS011;64990;51.698;-0.292;2023-07-13T07:02:31;13.75;;;3.80;;
76208;SDS011;64990;51.698;-0.292;2023-07-13T07:04:57;4.22;;;2.35;;
76208;SDS011;64990;51.698;-0.292;2023-07-13T07:07:24;15.75;;;3.35;;
76208;SDS011;64990;51.698;-0.292;2023-07-13T07:09:50;7.88;;;3.17;;
76208;SDS011;64990;51.698;-0.292;2023-07-13T07:12:16;7.03;;;2.13;;
76208;SDS011;64990;51.698;-0.292;2023-07-13T07:14:42;7.28;;;2.05;;
76208;SDS011;64990;51.698;-0.292;2023-07-13T07:17:08;5.80;;;2.15;;
76208;SDS011;64990;51.698;-0.292;2023-07-13T07:19:34;11.90;;;2.72;;
76208;SDS011;64990;51.698;-0.292;2023-07-13T07:22:00;9.98;;;2.80;;
76208;SDS011;64990;51.698;-0.292;2023-07-13T07:24:26;7.13;;;3.05;;
76208;SDS011;64990;51.698;-0.292;2023-07-13T07:26:52;5.82;;;1.90;;
76208;SDS011;64990;51.698;-0.292;2023-07-13T07:29:18;11.70;;;2.92;;
76208;SDS011;64990;51.698;-0.292;2023-07-13T07:31:44;8.90;;;2.33;;
76208;SDS011;64990;51.698;-0.292;2023-07-13T07:34:10;5.57;;;2.60;;
76208;SDS011;64990;51.698;-0.292;2023-07-13T07:36:36;7.20;;;2.40;;
76208;SDS011;64990;51.698;-0.292;2023-07-13T07:39:02;7.70;;;2.67;;
76208;SDS011;64990;51.698;-0.292;2023-07-13T07:41:29;8.18;;;2.47;;
76208;SDS011;64990;51.698;-0.292;2023-07-13T07:43:55;6.57;;;2.67;;
76208;SDS011;64990;51.698;-0.292;2023-07-13T07:46:21;8.75;;;2.38;;
76208;SDS011;64990;51.698;-0.292;2023-07-13T07:48:47;9.88;;;3.00;;
76208;SDS011;64990;51.698;-0.292;2023-07-13T07:51:13;6.30;;;2.80;;
76208;SDS011;64990;51.698;-0.292;2023-07-13T07:53:39;11.80;;;3.72;;
76208;SDS011;64990;51.698;-0.292;2023-07-13T07:56:05;24.00;;;5.05;;
76208;SDS011;64990;51.698;-0.292;2023-07-13T07:58:31;14.00;;;4.80;;
76208;SDS011;64990;51.698;-0.292;2023-07-13T08:01:04;11.68;;;2.90;;
76208;SDS011;64990;51.698;-0.292;2023-07-13T08:03:31;8.45;;;2.53;;
76208;SDS011;64990;51.698;-0.292;2023-07-13T08:05:57;6.53;;;2.30;;
76208;SDS011;64990;51.698;-0.292;2023-07-13T08:08:23;9.50;;;3.03;;
76208;SDS011;64990;51.698;-0.292;2023-07-13T08:10:49;6.50;;;2.47;;
76208;SDS011;64990;51.698;-0.292;2023-07-13T08:13:15;7.10;;;2.33;;
76208;SDS011;64990;51.698;-0.292;2023-07-13T08:15:41;5.32;;;3.38;;
76208;SDS011;64990;51.698;-0.292;2023-07-13T08:18:08;11.82;;;2.67;;
76208;SDS011;64990;51.698;-0.292;2023-07-13T08:20:40;4.90;;;2.72;;
76208;SDS011;64990;51.698;-0.292;2023-07-13T08:23:06;7.53;;;1.73;;
76208;SDS011;64990;51.698;-0.292;2023-07-13T08:25:33;6.32;;;2.85;;
76208;SDS011;64990;51.698;-0.292;2023-07-13T08:27:59;8.95;;;2.40;;
76208;SDS011;64990;51.698;-0.292;2023-07-13T08:30:25;6.93;;;2.20;;
76208;SDS011;64990;51.698;-0.292;2023-07-13T08:32:51;11.73;;;3.22;;
76208;SDS011;64990;51.698;-0.292;2023-07-13T08:35:17;6.35;;;2.28;;
76208;SDS011;64990;51.698;-0.292;2023-07-13T08:37:46;11.18;;;3.25;;
76208;SDS011;64990;51.698;-0.292;2023-07-13T08:40:12;8.55;;;3.13;;
76208;SDS011;64990;51.698;-0.292;2023-07-13T08:45:28;5.40;;;1.60;;
76208;SDS011;64990;51.698;-0.292;2023-07-13T08:50:30;4.65;;;2.47;;
76208;SDS011;64990;51.698;-0.292;2023-07-13T08:52:56;2.72;;;1.73;;
76208;SDS011;64990;51.698;-0.292;2023-07-13T08:55:33;6.43;;;1.67;;
76208;SDS011;64990;51.698;-0.292;2023-07-13T08:58:09;5.63;;;1.90;;
76208;SDS011;64990;51.698;-0.292;2023-07-13T09:03:20;5.65;;;1.88;;
76208;SDS011;64990;51.698;-0.292;2023-07-13T09:05:48;5.03;;;1.13;;
76208;SDS011;64990;51.698;-0.292;2023-07-13T09:10:46;9.18;;;2.22;;
76208;SDS011;64990;51.698;-0.292;2023-07-13T09:15:59;5.45;;;1.98;;
76208;SDS011;64990;51.698;-0.292;2023-07-13T09:18:33;6.53;;;2.15;;
76208;SDS011;64990;51.698;-0.292;2023-07-13T09:21:03;7.40;;;2.00;;
76208;SDS011;64990;51.698;-0.292;2023-07-13T09:23:30;5.60;;;2.35;;
76208;SDS011;64990;51.698;-0.292;2023-07-13T09:26:19;6.85;;;2.45;;
76208;SDS011;64990;51.698;-0.292;2023-07-13T09:28:44;3.88;;;2.22;;
76208;SDS011;64990;51.698;-0.292;2023-07-13T09:31:14;8.15;;;3.08;;
76208;SDS011;64990;51.698;-0.292;2023-07-13T09:33:41;10.13;;;2.22;;
76208;SDS011;64990;51.698;-0.292;2023-07-13T09:38:42;11.45;;;2.50;;
76208;SDS011;64990;51.698;-0.292;2023-07-13T09:46:30;7.18;;;2.30;;
76208;SDS011;64990;51.698;-0.292;2023-07-13T09:48:56;8.32;;;3.42;;
76208;SDS011;64990;51.698;-0.292;2023-07-13T09:51:22;6.03;;;2.72;;
76208;SDS011;64990;51.698;-0.292;2023-07-13T09:53:48;9.82;;;2.85;;
76208;SDS011;64990;51.698;-0.292;2023-07-13T09:56:21;6.50;;;2.72;;
76208;SDS011;64990;51.698;-0.292;2023-07-13T09:58:48;9.85;;;1.90;;
76208;SDS011;64990;51.698;-0.292;2023-07-13T10:01:14;3.05;;;1.50;;
76208;SDS011;64990;51.698;-0.292;2023-07-13T10:03:51;4.10;;;1.73;;
76208;SDS011;64990;51.698;-0.292;2023-07-13T10:06:19;7.50;;;1.52;;
76208;SDS011;64990;51.698;-0.292;2023-07-13T10:08:47;3.85;;;1.85;;
76208;SDS011;64990;51.698;-0.292;2023-07-13T10:11:18;8.52;;;1.95;;
76208;SDS011;64990;51.698;-0.292;2023-07-13T10:13:50;7.85;;;1.58;;
76208;SDS011;64990;51.698;-0.292;2023-07-13T10:16:17;4.65;;;1.52;;
76208;SDS011;64990;51.698;-0.292;2023-07-13T10:18:55;4.47;;;1.25;;
76208;SDS011;64990;51.698;-0.292;2023-07-13T10:21:22;2.92;;;1.55;;
76208;SDS011;64990;51.698;-0.292;2023-07-13T10:23:53;3.78;;;1.23;;
76208;SDS011;64990;51.698;-0.292;2023-07-13T10:26:29;3.25;;;1.20;;
76208;SDS011;64990;51.698;-0.292;2023-07-13T10:28:56;8.25;;;3.00;;
76208;SDS011;64990;51.698;-0.292;2023-07-13T10:31:23;5.57;;;1.05;;
76208;SDS011;64990;51.698;-0.292;2023-07-13T10:33:49;5.13;;;1.63;;
76208;SDS011;64990;51.698;-0.292;2023-07-13T10:38:41;7.10;;;1.50;;
76208;SDS011;64990;51.698;-0.292;2023-07-13T10:41:12;5.28;;;1.73;;
76208;SDS011;64990;51.698;-0.292;2023-07-13T10:43:42;3.35;;;1.23;;
76208;SDS011;64990;51.698;-0.292;2023-07-13T10:46:10;6.00;;;1.33;;
76208;SDS011;64990;51.698;-0.292;2023-07-13T10:48:37;2.20;;;1.33;;
76208;SDS011;64990;51.698;-0.292;2023-07-13T10:51:05;6.35;;;1.30;;
76208;SDS011;64990;51.698;-0.292;2023-07-13T10:53:33;7.07;;;0.98;;
76208;SDS011;64990;51.698;-0.292;2023-07-13T10:56:00;5.50;;;1.33;;
76208;SDS011;64990;51.698;-0.292;2023-07-13T10:58:37;2.78;;;1.27;;
76208;SDS011;64990;51.698;-0.292;2023-07-13T11:01:07;2.97;;;1.23;;
76208;SDS011;64990;51.698;-0.292;2023-07-13T11:03:38;3.13;;;0.93;;
76208;SDS011;64990;51.698;-0.292;2023-07-13T11:08:53;7.40;;;1.63;;
76208;SDS011;64990;51.698;-0.292;2023-07-13T11:21:16;4.10;;;1.00;;
76208;SDS011;64990;51.698;-0.292;2023-07-13T11:23:43;2.92;;;1.33;;
76208;SDS011;64990;51.698;-0.292;2023-07-13T11:28:54;2.03;;;1.55;;
76208;SDS011;64990;51.698;-0.292;2023-07-13T11:31:21;10.90;;;2.50;;
76208;SDS011;64990;51.698;-0.292;2023-07-13T11:33:50;2.38;;;1.45;;
76208;SDS011;64990;51.698;-0.292;2023-07-13T11:36:19;2.00;;;1.08;;
76208;SDS011;64990;51.698;-0.292;2023-07-13T11:41:17;6.95;;;0.93;;
76208;SDS011;64990;51.698;-0.292;2023-07-13T11:43:45;5.32;;;1.88;;
76208;SDS011;64990;51.698;-0.292;2023-07-13T11:46:12;0.73;;;0.73;;
76208;SDS011;64990;51.698;-0.292;2023-07-13T11:48:38;7.78;;;1.92;;
76208;SDS011;64990;51.698;-0.292;2023-07-13T11:51:05;2.88;;;1.65;;
76208;SDS011;64990;51.698;-0.292;2023-07-13T11:53:38;5.80;;;1.25;;
76208;SDS011;64990;51.698;-0.292;2023-07-13T11:56:05;4.78;;;1.58;;
76208;SDS011;64990;51.698;-0.292;2023-07-13T11:58:31;7.60;;;1.15;;
76208;SDS011;64990;51.698;-0.292;2023-07-13T12:00:58;3.78;;;1.45;;
76208;SDS011;64990;51.698;-0.292;2023-07-13T12:03:26;1.52;;;1.35;;
76208;SDS011;64990;51.698;-0.292;2023-07-13T12:06:04;2.90;;;1.27;;
76208;SDS011;64990;51.698;-0.292;2023-07-13T12:08:39;6.32;;;1.63;;
76208;SDS011;64990;51.698;-0.292;2023-07-13T12:11:06;7.97;;;1.83;;
76208;SDS011;64990;51.698;-0.292;2023-07-13T12:13:37;2.80;;;1.10;;
76208;SDS011;64990;51.698;-0.292;2023-07-13T12:16:10;2.72;;;1.63;;
76208;SDS011;64990;51.698;-0.292;2023-07-13T12:18:36;4.35;;;1.35;;
76208;SDS011;64990;51.698;-0.292;2023-07-13T12:21:03;1.90;;;0.90;;
76208;SDS011;64990;51.698;-0.292;2023-07-13T12:23:31;2.38;;;1.17;;
76208;SDS011;64990;51.698;-0.292;2023-07-13T12:25:58;5.80;;;1.85;;
76208;SDS011;64990;51.698;-0.292;2023-07-13T12:28:33;2.35;;;1.10;;
76208;SDS011;64990;51.698;-0.292;2023-07-13T12:31:22;2.60;;;1.30;;
76208;SDS011;64990;51.698;-0.292;2023-07-13T12:33:45;7.60;;;1.40;;
76208;SDS011;64990;51.698;-0.292;2023-07-13T12:36:11;4.68;;;1.60;;
76208;SDS011;64990;51.698;-0.292;2023-07-13T12:38:37;10.45;;;2.92;;
76208;SDS011;64990;51.698;-0.292;2023-07-13T12:41:05;4.18;;;1.45;;
76208;SDS011;64990;51.698;-0.292;2023-07-13T12:43:35;4.10;;;1.35;;
76208;SDS011;64990;51.698;-0.292;2023-07-13T12:46:15;6.25;;;1.80;;
76208;SDS011;64990;51.698;-0.292;2023-07-13T12:48:42;1.83;;;1.05;;
76208;SDS011;64990;51.698;-0.292;2023-07-13T12:51:11;4.38;;;1.30;;
76208;SDS011;64990;51.698;-0.292;2023-07-13T12:53:41;5.78;;;1.77;;
76208;SDS011;64990;51.698;-0.292;2023-07-13T12:56:08;3.15;;;1.52;;
76208;SDS011;64990;51.698;-0.292;2023-07-13T12:58:38;2.35;;;1.10;;
76208;SDS011;64990;51.698;-0.292;2023-07-13T13:01:05;8.13;;;2.28;;
76208;SDS011;64990;51.698;-0.292;2023-07-13T13:03:34;2.83;;;1.02;;
76208;SDS011;64990;51.698;-0.292;2023-07-13T13:06:23;3.33;;;1.17;;
76208;SDS011;64990;51.698;-0.292;2023-07-13T13:08:49;5.85;;;1.63;;
76208;SDS011;64990;51.698;-0.292;2023-07-13T13:11:18;7.28;;;1.35;;
76208;SDS011;64990;51.698;-0.292;2023-07-13T13:13:44;4.60;;;1.10;;
76208;SDS011;64990;51.698;-0.292;2023-07-13T13:16:23;5.22;;;1.23;;
76208;SDS011;64990;51.698;-0.292;2023-07-13T13:18:50;1.58;;;1.08;;
76208;SDS011;64990;51.698;-0.292;2023-07-13T13:21:17;2.72;;;1.38;;
76208;SDS011;64990;51.698;-0.292;2023-07-13T13:23:44;2.05;;;1.65;;
76208;SDS011;64990;51.698;-0.292;2023-07-13T13:26:11;3.53;;;1.75;;
76208;SDS011;64990;51.698;-0.292;2023-07-13T13:28:37;1.80;;;1.00;;
76208;SDS011;64990;51.698;-0.292;2023-07-13T13:31:03;6.03;;;1.27;;
76208;SDS011;64990;51.698;-0.292;2023-07-13T13:33:30;1.83;;;1.00;;
76208;SDS011;64990;51.698;-0.292;2023-07-13T13:35:56;2.28;;;1.50;;
76208;SDS011;64990;51.698;-0.292;2023-07-13T13:38:26;4.47;;;1.35;;
76208;SDS011;64990;51.698;-0.292;2023-07-13T13:40:52;5.10;;;1.80;;
76208;SDS011;64990;51.698;-0.292;2023-07-13T13:43:22;16.02;;;3.40;;
76208;SDS011;64990;51.698;-0.292;2023-07-13T13:45:52;7.10;;;2.30;;
76208;SDS011;64990;51.698;-0.292;2023-07-13T13:48:19;5.20;;;1.80;;
76208;SDS011;64990;51.698;-0.292;2023-07-13T13:50:45;13.23;;;3.17;;
76208;SDS011;64990;51.698;-0.292;2023-07-13T13:53:12;7.80;;;2.10;;
76208;SDS011;64990;51.698;-0.292;2023-07-13T13:55:39;7.53;;;1.45;;
76208;SDS011;64990;51.698;-0.292;2023-07-13T13:58:07;5.80;;;1.88;;
76208;SDS011;64990;51.698;-0.292;2023-07-13T14:00:33;6.85;;;2.53;;
76208;SDS011;64990;51.698;-0.292;2023-07-13T14:02:59;4.20;;;2.08;;
76208;SDS011;64990;51.698;-0.292;2023-07-13T14:05:25;3.45;;;1.25;;
76208;SDS011;64990;51.698;-0.292;2023-07-13T14:07:52;5.55;;;1.30;;
76208;SDS011;64990;51.698;-0.292;2023-07-13T14:10:18;9.80;;;1.88;;
76208;SDS011;64990;51.698;-0.292;2023-07-13T14:12:49;7.40;;;1.25;;
76208;SDS011;64990;51.698;-0.292;2023-07-13T14:15:21;1.60;;;1.48;;
76208;SDS011;64990;51.698;-0.292;2023-07-13T14:17:47;2.63;;;1.67;;
76208;SDS011;64990;51.698;-0.292;2023-07-13T14:20:17;1.95;;;1.65;;
76208;SDS011;64990;51.698;-0.292;2023-07-13T14:22:43;2.72;;;1.73;;
76208;SDS011;64990;51.698;-0.292;2023-07-13T14:25:13;6.72;;;1.92;;
76208;SDS011;64990;51.698;-0.292;2023-07-13T14:27:40;4.78;;;1.25;;
76208;SDS011;64990;51.698;-0.292;2023-07-13T14:32:39;2.53;;;1.55;;
76208;SDS011;64990;51.698;-0.292;2023-07-13T14:35:05;3.78;;;2.40;;
76208;SDS011;64990;51.698;-0.292;2023-07-13T14:37:31;3.78;;;1.40;;
76208;SDS011;64990;51.698;-0.292;2023-07-13T14:39:57;3.75;;;1.88;;
76208;SDS011;64990;51.698;-0.292;2023-07-13T14:42:23;5.80;;;2.47;;
76208;SDS011;64990;51.698;-0.292;2023-07-13T14:44:49;4.00;;;1.55;;
76208;SDS011;64990;51.698;-0.292;2023-07-13T14:47:15;3.40;;;1.63;;
76208;SDS011;64990;51.698;-0.292;2023-07-13T14:49:42;1.75;;;1.63;;
76208;SDS011;64990;51.698;-0.292;2023-07-13T14:52:13;2.35;;;1.15;;
76208;SDS011;64990;51.698;-0.292;2023-07-13T14:54:40;5.55;;;1.30;;
76208;SDS011;64990;51.698;-0.292;2023-07-13T14:57:11;3.65;;;1.88;;
76208;SDS011;64990;51.698;-0.292;2023-07-13T14:59:37;3.60;;;1.50;;
76208;SDS011;64990;51.698;-0.292;2023-07-13T15:02:08;4.07;;;1.20;;
76208;SDS011;64990;51.698;-0.292;2023-07-13T15:07:04;2.80;;;1.10;;
76208;SDS011;64990;51.698;-0.292;2023-07-13T15:09:30;3.13;;;1.10;;
76208;SDS011;64990;51.698;-0.292;2023-07-13T15:11:56;3.22;;;1.30;;
76208;SDS011;64990;51.698;-0.292;2023-07-13T15:14:23;8.90;;;1.85;;
76208;SDS011;64990;51.698;-0.292;2023-07-13T15:16:50;2.38;;;1.13;;
76208;SDS011;64990;51.698;-0.292;2023-07-13T15:19:17;6.57;;;1.10;;
76208;SDS011;64990;51.698;-0.292;2023-07-13T15:21:44;1.85;;;1.00;;
76208;SDS011;64990;51.698;-0.292;2023-07-13T15:24:10;3.97;;;1.48;;
76208;SDS011;64990;51.698;-0.292;2023-07-13T15:26:36;4.35;;;1.35;;